createdAt,value
2023-03-22T00:01:32.191Z,8.24
2023-03-22T00:07:02.177Z,8.15
2023-03-22T00:12:27.117Z,8.10
2023-03-22T00:17:53.114Z,8.09
2023-03-22T00:23:21.108Z,8.16
2023-03-22T00:28:45.116Z,8.23
2023-03-22T00:34:03.148Z,8.25
2023-03-22T00:39:33.163Z,8.24
2023-03-22T00:44:57.148Z,8.20
2023-03-22T00:50:22.143Z,8.16
2023-03-22T00:55:49.133Z,8.12
2023-03-22T01:01:23.219Z,8.02
2023-03-22T01:06:48.146Z,7.96
2023-03-22T01:12:18.159Z,7.86
2023-03-22T01:17:43.163Z,7.86
2023-03-22T01:23:07.169Z,7.80
2023-03-22T01:28:35.173Z,7.79
2023-03-22T01:33:59.169Z,7.76
2023-03-22T01:39:30.167Z,7.71
2023-03-22T01:45:28.200Z,7.74
2023-03-22T01:51:03.212Z,7.69
2023-03-22T01:56:42.178Z,7.64
2023-03-22T02:02:17.162Z,7.62
2023-03-22T02:13:41.184Z,7.56
2023-03-22T02:19:59.214Z,7.64
2023-03-22T02:25:50.223Z,7.63
2023-03-22T02:31:46.221Z,7.63
2023-03-22T02:37:44.215Z,7.59
2023-03-22T02:43:24.206Z,7.57
2023-03-22T02:48:56.209Z,7.57
2023-03-22T02:54:26.231Z,7.74
2023-03-22T02:59:58.221Z,7.78
2023-03-22T03:05:25.214Z,7.79
2023-03-22T03:10:50.254Z,7.79
2023-03-22T03:16:24.268Z,7.80
2023-03-22T03:21:59.234Z,7.82
2023-03-22T03:27:27.254Z,7.80
2023-03-22T03:33:02.200Z,7.83
2023-03-22T03:38:38.213Z,7.84
2023-03-22T03:44:05.266Z,7.86
2023-03-22T03:49:34.229Z,7.86
2023-03-22T03:54:59.248Z,7.84
2023-03-22T04:00:26.204Z,7.80
2023-03-22T04:06:13.209Z,7.73
2023-03-22T04:11:43.267Z,7.72
2023-03-22T04:17:08.224Z,7.68
2023-03-22T04:22:35.247Z,7.66
2023-03-22T04:28:02.304Z,7.68
2023-03-22T04:33:29.235Z,7.67
2023-03-22T04:39:21.053Z,7.63
2023-03-22T04:44:55.263Z,7.60
2023-03-22T04:50:20.239Z,7.58
2023-03-22T04:55:52.242Z,7.47
2023-03-22T05:01:19.320Z,7.38
2023-03-22T05:06:54.266Z,7.31
2023-03-22T05:12:33.318Z,7.28
2023-03-22T05:18:09.257Z,7.32
2023-03-22T05:23:40.285Z,7.35
2023-03-22T05:29:08.284Z,7.34
2023-03-22T05:34:55.280Z,7.36
2023-03-22T05:40:31.283Z,7.40
2023-03-22T05:45:59.316Z,7.50
2023-03-22T05:52:02.350Z,7.59
2023-03-22T05:58:00.308Z,7.65
2023-03-22T06:03:30.415Z,7.68
2023-03-22T06:09:15.927Z,7.77
2023-03-22T06:14:44.294Z,7.87
2023-03-22T06:20:25.427Z,7.98
2023-03-22T06:25:54.305Z,8.01
2023-03-22T06:31:20.460Z,8.05
2023-03-22T06:36:52.309Z,8.16
2023-03-22T06:42:26.344Z,8.27
2023-03-22T06:47:57.368Z,8.37
2023-03-22T06:53:36.292Z,8.44
2023-03-22T06:59:04.316Z,8.47
2023-03-22T07:04:29.455Z,8.49
2023-03-22T07:09:58.290Z,8.55
2023-03-22T07:15:24.373Z,8.67
2023-03-22T07:20:54.343Z,8.83
2023-03-22T07:26:22.331Z,8.90
2023-03-22T07:31:49.396Z,9.03
2023-03-22T07:37:28.345Z,9.19
2023-03-22T07:43:00.472Z,9.34
2023-03-22T07:48:33.362Z,9.55
2023-03-22T07:54:33.954Z,9.69
2023-03-22T08:00:03.348Z,9.87
2023-03-22T08:05:37.478Z,9.99
2023-03-22T08:11:05.589Z,10.11
2023-03-22T08:16:33.421Z,10.15
2023-03-22T08:21:57.388Z,10.32
2023-03-22T08:27:45.377Z,10.49
2023-03-22T08:33:13.369Z,10.57
2023-03-22T08:38:45.497Z,10.69
2023-03-22T08:44:16.396Z,10.93
2023-03-22T08:49:43.398Z,11.02
2023-03-22T08:55:17.688Z,11.33
2023-03-22T09:01:00.532Z,11.43
2023-03-22T09:06:35.385Z,11.62
2023-03-22T09:12:02.372Z,11.76
2023-03-22T09:17:28.448Z,12.00
2023-03-22T09:22:57.440Z,12.25
2023-03-22T09:28:30.461Z,12.36
2023-03-22T09:33:59.846Z,12.50
2023-03-22T09:39:35.405Z,12.73
2023-03-22T09:45:02.375Z,12.86
2023-03-22T09:50:31.408Z,13.07
2023-03-22T09:56:06.413Z,13.36
2023-03-22T10:01:43.604Z,13.61
2023-03-22T10:07:16.403Z,13.99
2023-03-22T10:12:47.432Z,14.14
2023-03-22T10:18:16.409Z,14.26
2023-03-22T10:23:48.422Z,14.39
2023-03-22T10:29:22.425Z,14.48
2023-03-22T10:34:46.420Z,14.32
2023-03-22T10:40:17.688Z,14.32
2023-03-22T10:45:49.458Z,14.36
2023-03-22T10:51:16.400Z,14.04
2023-03-22T10:56:43.895Z,14.35
2023-03-22T11:02:14.802Z,14.28
2023-03-22T11:07:54.490Z,14.45
2023-03-22T11:13:31.503Z,14.50
2023-03-22T11:19:00.492Z,14.73
2023-03-22T11:24:28.486Z,14.67
2023-03-22T11:30:00.434Z,14.64
2023-03-22T11:35:39.620Z,14.79
2023-03-22T11:41:06.824Z,14.89
2023-03-22T11:46:33.713Z,14.96
2023-03-22T11:52:05.326Z,15.06
2023-03-22T11:57:33.536Z,15.22
2023-03-22T12:03:03.722Z,15.40
2023-03-22T12:08:37.681Z,15.40
2023-03-22T12:14:08.652Z,15.24
2023-03-22T12:19:56.668Z,15.56
2023-03-22T12:25:27.671Z,15.56
2023-03-22T12:30:58.822Z,15.38
2023-03-22T12:36:35.326Z,15.53
2023-03-22T12:42:07.899Z,15.43
2023-03-22T12:47:40.068Z,15.56
2023-03-22T12:53:05.839Z,15.65
2023-03-22T12:58:38.726Z,15.61
2023-03-22T13:04:05.846Z,15.62
2023-03-22T13:09:34.818Z,15.86
2023-03-22T13:15:41.181Z,16.23
2023-03-22T13:21:26.831Z,16.51
2023-03-22T13:27:00.941Z,16.65
2023-03-22T13:32:46.671Z,16.72
2023-03-22T13:38:19.954Z,17.07
2023-03-22T13:43:50.098Z,16.70
2023-03-22T13:49:47.687Z,16.55
2023-03-22T13:55:15.545Z,16.61
2023-03-22T14:00:54.744Z,16.77
2023-03-22T14:06:32.897Z,16.89
2023-03-22T14:12:05.932Z,17.01
2023-03-22T14:17:45.936Z,16.92
2023-03-22T14:56:31.748Z,17.15
2023-03-22T15:02:01.345Z,16.85
2023-03-22T15:07:28.681Z,16.49
2023-03-22T15:12:56.707Z,16.17
2023-03-22T15:18:23.711Z,15.97
2023-03-22T15:23:50.676Z,15.75
2023-03-22T15:29:18.675Z,15.68
2023-03-22T15:34:46.713Z,15.55
2023-03-22T15:40:11.720Z,15.53
2023-03-22T15:45:38.909Z,15.44
2023-03-22T15:51:03.706Z,15.37
2023-03-22T15:56:41.698Z,15.14
2023-03-22T16:02:10.718Z,15.06
2023-03-22T16:07:34.724Z,14.94
2023-03-22T16:12:59.714Z,14.81
2023-03-22T16:18:36.728Z,14.82
2023-03-22T16:24:01.742Z,14.84
2023-03-22T16:29:25.996Z,14.75
2023-03-22T16:34:59.724Z,14.69
2023-03-22T16:40:26.731Z,14.58
2023-03-22T16:45:52.737Z,14.53
2023-03-22T16:51:29.764Z,14.49
2023-03-22T16:56:53.774Z,14.33
2023-03-22T17:02:27.776Z,14.23
2023-03-22T17:07:54.755Z,14.09
2023-03-22T17:13:22.747Z,13.92
2023-03-22T17:18:46.768Z,13.65
2023-03-22T17:24:14.764Z,13.53
2023-03-22T17:29:39.809Z,13.49
2023-03-22T17:35:04.776Z,13.41
2023-03-22T17:40:39.885Z,13.39
2023-03-22T17:46:57.329Z,13.35
2023-03-22T17:51:59.768Z,13.31
2023-03-22T17:58:06.671Z,13.18
2023-03-22T18:03:11.832Z,13.12
2023-03-22T18:08:37.800Z,12.98
2023-03-22T18:14:18.036Z,13.00
2023-03-22T18:20:03.984Z,12.99
2023-03-22T18:25:41.376Z,13.08
2023-03-22T18:31:09.833Z,13.09
2023-03-22T18:36:41.868Z,13.12
2023-03-22T18:42:19.048Z,13.14
2023-03-22T18:47:51.835Z,13.17
2023-03-22T18:53:18.947Z,13.17
2023-03-22T18:58:43.795Z,13.21
2023-03-22T19:04:04.822Z,13.23
2023-03-22T19:09:29.838Z,13.25
2023-03-22T19:20:39.980Z,13.29
2023-03-22T19:26:03.863Z,13.29
2023-03-22T19:31:28.830Z,13.30
2023-03-22T19:37:03.819Z,13.33
2023-03-22T19:42:36.896Z,13.37
2023-03-22T19:48:04.165Z,13.37
2023-03-22T19:54:12.100Z,13.37
2023-03-22T19:59:19.526Z,13.37
2023-03-22T20:04:46.883Z,13.37
2023-03-22T20:10:15.856Z,13.32
2023-03-22T20:15:39.922Z,13.35
2023-03-22T20:21:04.862Z,13.34
2023-03-22T20:26:32.891Z,13.36
2023-03-22T20:31:57.924Z,13.33
2023-03-22T20:37:29.886Z,13.29
2023-03-22T20:42:57.851Z,13.22
2023-03-22T20:48:22.871Z,13.20
2023-03-22T20:53:47.871Z,13.16
2023-03-22T20:59:14.893Z,13.06
2023-03-22T21:04:40.897Z,12.92
2023-03-22T21:10:04.895Z,12.87
2023-03-22T21:15:32.879Z,12.87
2023-03-22T21:20:56.900Z,12.87
2023-03-22T21:26:21.909Z,12.81
2023-03-22T21:31:48.901Z,12.78
2023-03-22T21:37:13.940Z,12.73
2023-03-22T21:42:42.952Z,12.72
2023-03-22T21:48:13.926Z,12.66
2023-03-22T21:53:40.919Z,12.58
2023-03-22T21:59:06.955Z,12.51
2023-03-22T22:04:39.450Z,12.42
2023-03-22T22:10:04.929Z,12.29
2023-03-22T22:15:28.929Z,12.25
2023-03-22T22:21:02.906Z,12.14
2023-03-22T22:26:28.914Z,12.11
2023-03-22T22:31:53.921Z,12.01
2023-03-22T22:37:27.946Z,11.99
2023-03-22T22:42:52.967Z,11.97
2023-03-22T22:48:16.993Z,11.93
2023-03-22T22:53:44.961Z,11.94
2023-03-22T22:59:08.952Z,11.92
2023-03-22T23:04:33.951Z,11.74
2023-03-22T23:10:02.937Z,11.78
2023-03-22T23:15:27.965Z,11.79
2023-03-22T23:20:56.975Z,11.75
2023-03-22T23:26:28.988Z,11.67
2023-03-22T23:31:54.984Z,11.65
2023-03-22T23:37:20.964Z,11.67
2023-03-22T23:42:47.980Z,11.78
2023-03-22T23:48:17.989Z,11.85
2023-03-22T23:53:43.977Z,11.92
2023-03-22T23:59:12.983Z,11.93
